Time;durP1;ratioP1;P1;durP2;ratioP2;P2;SDS_P1;SDS_P2;PMS_P1;PMS_P2;Temp;Humidity;BMP_temperature;BMP_pressure;BME280_temperature;BME280_humidity;BME280_pressure;Samples;Min_cycle;Max_cycle;Signal;HPM_P1;HPM_P2
2023/05/04 00:03:31;;;;;;;16.23;5.55;;;;;;;;;;10049986;28;20070;-73
2023/05/04 00:08:24;;;;;;;8.85;5.55;;;;;;;;;;10053706;28;20049;-75
2023/05/04 00:13:19;;;;;;;5.18;4.78;;;;;;;;;;10044867;28;20496;-75
2023/05/04 00:18:12;;;;;;;5.18;4.68;;;;;;;;;;10052062;28;20050;-76
2023/05/04 00:23:05;;;;;;;6.05;5.07;;;;;;;;;;10047695;28;20078;-76
2023/05/04 00:27:59;;;;;;;7.65;5.28;;;;;;;;;;10048037;28;20059;-75
2023/05/04 00:32:52;;;;;;;5.60;4.97;;;;;;;;;;10047422;28;20469;-75
2023/05/04 00:37:45;;;;;;;5.28;4.78;;;;;;;;;;10046646;28;20091;-76
2023/05/04 00:42:38;;;;;;;5.72;5.13;;;;;;;;;;10049894;28;20044;-78
2023/05/04 00:47:32;;;;;;;5.15;4.65;;;;;;;;;;10047271;28;20054;-79
2023/05/04 00:52:27;;;;;;;6.30;5.70;;;;;;;;;;10048451;28;20061;-81
2023/05/04 00:57:20;;;;;;;7.13;5.88;;;;;;;;;;10049005;28;20420;-82
2023/05/04 01:02:14;;;;;;;6.65;5.97;;;;;;;;;;10051409;28;20045;-82
2023/05/04 01:07:25;;;;;;;7.18;6.32;;;;;;;;;;10047045;28;20056;-80
2023/05/04 01:12:25;;;;;;;9.57;6.03;;;;;;;;;;10049383;28;20136;-80
2023/05/04 01:17:19;;;;;;;8.60;6.20;;;;;;;;;;10050821;28;20455;-82
2023/05/04 01:22:11;;;;;;;7.70;6.38;;;;;;;;;;10044657;28;20046;-82
2023/05/04 01:27:08;;;;;;;12.10;5.63;;;;;;;;;;10049483;28;20049;-83
2023/05/04 01:32:01;;;;;;;6.97;5.80;;;;;;;;;;10052963;28;20050;-81
2023/05/04 01:36:54;;;;;;;5.70;5.22;;;;;;;;;;10042517;28;20628;-79
2023/05/04 01:41:48;;;;;;;6.82;5.32;;;;;;;;;;10034926;28;20523;-83
2023/05/04 01:46:41;;;;;;;6.63;4.50;;;;;;;;;;10048745;28;20054;-79
2023/05/04 01:51:35;;;;;;;6.55;5.72;;;;;;;;;;10044512;28;20100;-78
2023/05/04 01:56:29;;;;;;;5.53;5.03;;;;;;;;;;10050425;28;20045;-78
2023/05/04 02:01:22;;;;;;;6.82;5.22;;;;;;;;;;10060009;28;20068;-76
2023/05/04 02:06:17;;;;;;;9.85;5.97;;;;;;;;;;10044338;28;20045;-75
2023/05/04 02:11:10;;;;;;;7.88;5.63;;;;;;;;;;10045880;28;20137;-74
2023/05/04 02:16:04;;;;;;;8.05;5.20;;;;;;;;;;10029516;28;20051;-78
2023/05/04 02:20:56;;;;;;;5.80;5.18;;;;;;;;;;10045849;28;20099;-78
2023/05/04 02:25:50;;;;;;;6.15;4.88;;;;;;;;;;10045913;28;20125;-77
2023/05/04 02:30:44;;;;;;;5.50;5.00;;;;;;;;;;10043268;28;20100;-75
2023/05/04 02:35:38;;;;;;;4.75;4.35;;;;;;;;;;10047864;28;20077;-76
2023/05/04 02:40:32;;;;;;;6.10;5.13;;;;;;;;;;10051861;28;20052;-77
2023/05/04 02:45:26;;;;;;;5.97;5.38;;;;;;;;;;10053194;28;20053;-78
2023/05/04 02:50:20;;;;;;;12.18;5.32;;;;;;;;;;10049353;28;20057;-77
2023/05/04 02:55:13;;;;;;;6.10;5.50;;;;;;;;;;10053625;28;20551;-77
2023/05/04 03:00:09;;;;;;;8.82;5.88;;;;;;;;;;10054156;28;20046;-77
2023/05/04 03:05:03;;;;;;;21.20;8.30;;;;;;;;;;10051663;28;20054;-75
2023/05/04 03:09:56;;;;;;;5.97;5.03;;;;;;;;;;10052937;28;20408;-75
2023/05/04 03:14:50;;;;;;;7.07;4.85;;;;;;;;;;10053957;28;20048;-75
2023/05/04 03:19:44;;;;;;;5.72;5.05;;;;;;;;;;10050790;28;20096;-74
2023/05/04 03:24:38;;;;;;;5.60;5.10;;;;;;;;;;10034218;28;20444;-73
2023/05/04 03:29:32;;;;;;;5.32;4.82;;;;;;;;;;10051250;28;20583;-75
2023/05/04 03:34:26;;;;;;;7.50;5.85;;;;;;;;;;10035187;28;20049;-75
2023/05/04 03:39:23;;;;;;;6.60;5.90;;;;;;;;;;10049943;28;20045;-76
2023/05/04 03:44:16;;;;;;;12.55;5.88;;;;;;;;;;10050597;28;20510;-77
2023/05/04 03:49:09;;;;;;;7.95;6.55;;;;;;;;;;10045342;28;20045;-76
2023/05/04 03:54:03;;;;;;;7.50;6.72;;;;;;;;;;10049749;28;20045;-74
2023/05/04 03:58:56;;;;;;;7.15;5.03;;;;;;;;;;10050705;28;20046;-76
2023/05/04 04:03:54;;;;;;;5.90;5.32;;;;;;;;;;10046204;28;20551;-83
2023/05/04 04:08:47;;;;;;;6.28;5.68;;;;;;;;;;10049022;28;20061;-78
2023/05/04 04:13:40;;;;;;;7.82;6.72;;;;;;;;;;10048801;28;20092;-78
2023/05/04 04:18:34;;;;;;;11.55;7.38;;;;;;;;;;10051895;28;20095;-79
2023/05/04 04:23:27;;;;;;;10.40;7.25;;;;;;;;;;10047930;28;20063;-78
2023/05/04 04:28:21;;;;;;;10.20;6.35;;;;;;;;;;10050043;28;20049;-79
2023/05/04 04:33:15;;;;;;;8.30;7.50;;;;;;;;;;10049066;28;20065;-77
2023/05/04 04:38:10;;;;;;;7.70;7.00;;;;;;;;;;10033337;28;20100;-81
2023/05/04 04:43:04;;;;;;;11.18;7.15;;;;;;;;;;10034282;28;20073;-81
2023/05/04 04:47:58;;;;;;;7.20;6.50;;;;;;;;;;10041285;28;20046;-80
2023/05/04 04:52:51;;;;;;;12.48;6.47;;;;;;;;;;10052480;28;20057;-80
2023/05/04 04:57:44;;;;;;;11.80;7.47;;;;;;;;;;10043206;28;20049;-77
2023/05/04 05:02:38;;;;;;;7.60;6.90;;;;;;;;;;10040318;28;21524;-78
2023/05/04 05:07:32;;;;;;;10.15;6.93;;;;;;;;;;10053222;28;20115;-79
2023/05/04 05:12:25;;;;;;;8.57;6.95;;;;;;;;;;10046933;28;20467;-78
2023/05/04 05:17:19;;;;;;;9.05;7.60;;;;;;;;;;10044253;28;20580;-78
2023/05/04 05:22:12;;;;;;;8.27;7.47;;;;;;;;;;10046108;28;20088;-69
2023/05/04 05:27:05;;;;;;;9.10;8.30;;;;;;;;;;10040514;28;20050;-74
2023/05/04 05:31:58;;;;;;;14.40;9.77;;;;;;;;;;10044740;28;20045;-75
2023/05/04 05:36:52;;;;;;;18.17;10.35;;;;;;;;;;10046505;28;20080;-74
2023/05/04 05:41:45;;;;;;;14.48;11.82;;;;;;;;;;10044952;28;20054;-66
2023/05/04 05:46:39;;;;;;;11.38;9.48;;;;;;;;;;10044538;28;20080;-68
2023/05/04 05:51:33;;;;;;;17.27;9.60;;;;;;;;;;10053281;28;20509;-68
2023/05/04 05:56:26;;;;;;;9.90;8.88;;;;;;;;;;10041466;28;20479;-69
2023/05/04 06:01:20;;;;;;;9.57;8.68;;;;;;;;;;10038891;28;20081;-69
2023/05/04 06:06:14;;;;;;;8.43;7.55;;;;;;;;;;10042086;28;20497;-69
2023/05/04 06:11:07;;;;;;;6.63;6.03;;;;;;;;;;10054076;28;20065;-69
2023/05/04 06:16:02;;;;;;;7.25;6.15;;;;;;;;;;10048104;28;20527;-69
2023/05/04 06:20:59;;;;;;;10.02;7.30;;;;;;;;;;10043686;28;20454;-68
2023/05/04 06:25:53;;;;;;;7.63;6.82;;;;;;;;;;10051535;28;20045;-69
2023/05/04 06:30:47;;;;;;;16.77;8.20;;;;;;;;;;10039798;28;20469;-68
2023/05/04 06:35:41;;;;;;;10.32;7.90;;;;;;;;;;10047380;28;20058;-69
2023/05/04 06:40:35;;;;;;;12.20;8.07;;;;;;;;;;10048612;28;20046;-68
2023/05/04 06:45:29;;;;;;;12.38;8.85;;;;;;;;;;10066374;28;20091;-68
2023/05/04 06:50:23;;;;;;;11.95;7.57;;;;;;;;;;10051406;28;20429;-68
2023/05/04 06:55:18;;;;;;;10.70;7.22;;;;;;;;;;10047149;28;20052;-68
2023/05/04 07:00:14;;;;;;;11.90;7.90;;;;;;;;;;10054389;28;20424;-68
2023/05/04 07:05:08;;;;;;;16.17;8.45;;;;;;;;;;10049936;28;20464;-68
2023/05/04 07:10:03;;;;;;;11.07;9.98;;;;;;;;;;10034992;28;20448;-67
2023/05/04 07:14:57;;;;;;;12.32;11.02;;;;;;;;;;10045227;28;20052;-68
2023/05/04 07:19:51;;;;;;;15.90;11.20;;;;;;;;;;10048844;28;20693;-67
2023/05/04 07:24:45;;;;;;;11.05;6.68;;;;;;;;;;10037885;28;20129;-68
2023/05/04 07:29:40;;;;;;;5.75;4.53;;;;;;;;;;10046818;28;20060;-67
2023/05/04 07:34:34;;;;;;;11.02;6.85;;;;;;;;;;10054568;28;20512;-68
2023/05/04 07:39:37;;;;;;;7.18;6.28;;;;;;;;;;10048558;28;20057;-68
2023/05/04 07:44:30;;;;;;;7.20;6.50;;;;;;;;;;10053800;28;20068;-67
2023/05/04 07:49:25;;;;;;;9.25;6.18;;;;;;;;;;10044408;28;20470;-68
2023/05/04 07:54:19;;;;;;;6.88;5.57;;;;;;;;;;10050286;28;20052;-68
2023/05/04 07:59:17;;;;;;;6.28;5.68;;;;;;;;;;10050764;28;20115;-68
2023/05/04 08:04:10;;;;;;;6.65;6.03;;;;;;;;;;10038340;28;20062;-68
2023/05/04 08:09:07;;;;;;;5.88;4.97;;;;;;;;;;10053696;28;20056;-68
2023/05/04 08:14:02;;;;;;;7.38;5.60;;;;;;;;;;10031982;28;20056;-68
2023/05/04 08:18:56;;;;;;;5.57;4.90;;;;;;;;;;10039880;28;20057;-68
2023/05/04 08:23:50;;;;;;;9.93;4.40;;;;;;;;;;10050249;28;20056;-68
2023/05/04 08:28:44;;;;;;;5.82;4.82;;;;;;;;;;10049626;28;20053;-68
2023/05/04 08:33:38;;;;;;;7.28;6.53;;;;;;;;;;10052448;28;20141;-68
2023/05/04 08:38:31;;;;;;;5.13;4.65;;;;;;;;;;10054915;28;20423;-68
2023/05/04 08:43:24;;;;;;;8.30;4.70;;;;;;;;;;10041362;28;20037;-68
2023/05/04 08:48:17;;;;;;;6.90;4.20;;;;;;;;;;10049372;28;20095;-68
2023/05/04 08:53:13;;;;;;;5.85;3.95;;;;;;;;;;10040204;28;20108;-69
2023/05/04 08:58:11;;;;;;;8.00;3.90;;;;;;;;;;10040851;28;20060;-69
2023/05/04 09:03:06;;;;;;;4.93;4.45;;;;;;;;;;10057938;28;20111;-69
2023/05/04 09:08:00;;;;;;;4.10;3.70;;;;;;;;;;10040668;28;20050;-69
2023/05/04 09:12:54;;;;;;;4.88;4.05;;;;;;;;;;10043927;28;20068;-69
2023/05/04 09:18:03;;;;;;;3.70;3.35;;;;;;;;;;10048510;28;20057;-69
2023/05/04 09:23:06;;;;;;;8.43;4.20;;;;;;;;;;10044660;28;20108;-69
2023/05/04 09:27:59;;;;;;;3.95;3.45;;;;;;;;;;10050362;28;20050;-70
2023/05/04 09:32:53;;;;;;;3.40;3.05;;;;;;;;;;10032526;28;20049;-69
2023/05/04 09:37:47;;;;;;;4.28;3.53;;;;;;;;;;10042100;28;20038;-69
2023/05/04 09:42:40;;;;;;;4.32;3.80;;;;;;;;;;10041462;28;20080;-69
2023/05/04 09:47:38;;;;;;;3.58;3.05;;;;;;;;;;10045218;28;20085;-67
2023/05/04 09:52:32;;;;;;;5.75;4.10;;;;;;;;;;10040322;28;20062;-66
2023/05/04 09:57:26;;;;;;;4.85;3.67;;;;;;;;;;10054182;28;20053;-68
2023/05/04 10:02:19;;;;;;;6.32;3.80;;;;;;;;;;10062578;28;20054;-67
2023/05/04 10:07:15;;;;;;;5.18;4.13;;;;;;;;;;10053215;28;20074;-67
2023/05/04 10:12:08;;;;;;;3.40;3.08;;;;;;;;;;10047536;28;20084;-68
2023/05/04 10:17:20;;;;;;;4.78;4.07;;;;;;;;;;10040896;28;20057;-68
2023/05/04 10:22:55;;;;;;;4.82;4.25;;;;;;;;;;10038175;28;20046;-68
2023/05/04 10:28:08;;;;;;;3.65;3.25;;;;;;;;;;10029808;28;20062;-68
2023/05/04 10:33:02;;;;;;;4.25;3.13;;;;;;;;;;10042854;28;20053;-68
2023/05/04 10:37:55;;;;;;;3.90;3.60;;;;;;;;;;10038678;28;20390;-67
2023/05/04 10:42:49;;;;;;;5.25;3.42;;;;;;;;;;10060460;28;20103;-68
2023/05/04 10:47:43;;;;;;;8.15;4.50;;;;;;;;;;10030010;28;20053;-68
2023/05/04 10:52:49;;;;;;;3.30;2.92;;;;;;;;;;10047757;28;20068;-71
2023/05/04 10:58:01;;;;;;;4.03;3.67;;;;;;;;;;10050616;28;20061;-71
2023/05/04 11:03:02;;;;;;;3.70;3.40;;;;;;;;;;10064268;28;20111;-71
2023/05/04 11:07:55;;;;;;;6.35;3.03;;;;;;;;;;10056198;28;20049;-72
2023/05/04 11:12:50;;;;;;;;;;;;;;;;;;10052712;28;20057;-71
2023/05/04 11:18:04;;;;;;;4.07;2.67;;;;;;;;;;10040697;28;19928;-71
2023/05/04 11:22:57;;;;;;;2.95;2.70;;;;;;;;;;10053708;28;20111;-71
2023/05/04 11:27:50;;;;;;;2.70;2.50;;;;;;;;;;10043792;28;20050;-72
2023/05/04 11:32:48;;;;;;;3.47;2.58;;;;;;;;;;10042630;28;20057;-71
2023/05/04 11:37:43;;;;;;;2.55;1.90;;;;;;;;;;10048836;28;20052;-71
2023/05/04 11:42:41;;;;;;;2.23;1.93;;;;;;;;;;10044926;28;20442;-72
2023/05/04 11:47:36;;;;;;;3.45;2.85;;;;;;;;;;10053346;28;20080;-72
2023/05/04 11:52:32;;;;;;;3.90;2.35;;;;;;;;;;10059552;28;20058;-70
2023/05/04 11:57:25;;;;;;;3.25;2.80;;;;;;;;;;10041668;28;20049;-72
2023/05/04 12:02:19;;;;;;;6.63;3.50;;;;;;;;;;10059730;28;20050;-71
2023/05/04 12:07:13;;;;;;;3.92;2.92;;;;;;;;;;10038755;28;20050;-72
2023/05/04 12:12:07;;;;;;;4.75;2.50;;;;;;;;;;10044874;28;20088;-71
2023/05/04 12:17:02;;;;;;;3.95;3.40;;;;;;;;;;10045986;28;20046;-73
2023/05/04 12:21:57;;;;;;;3.47;3.17;;;;;;;;;;10042893;28;20070;-72
2023/05/04 12:26:52;;;;;;;3.63;3.15;;;;;;;;;;10040615;28;20053;-72
2023/05/04 12:31:45;;;;;;;2.75;2.55;;;;;;;;;;10037449;28;20123;-72
2023/05/04 12:36:38;;;;;;;2.55;2.35;;;;;;;;;;10055461;28;20417;-71
2023/05/04 12:41:31;;;;;;;9.15;3.40;;;;;;;;;;10053005;28;20060;-71
2023/05/04 12:46:25;;;;;;;4.90;3.45;;;;;;;;;;10054459;28;20042;-69
2023/05/04 12:51:18;;;;;;;3.80;3.40;;;;;;;;;;10041066;28;20057;-71
2023/05/04 12:56:12;;;;;;;4.88;3.40;;;;;;;;;;10048694;28;20056;-72
2023/05/04 13:01:06;;;;;;;4.10;2.25;;;;;;;;;;10048674;28;20057;-72
2023/05/04 13:06:00;;;;;;;3.70;3.40;;;;;;;;;;10045727;28;20046;-71
2023/05/04 13:10:53;;;;;;;3.03;2.78;;;;;;;;;;10040698;28;20386;-72
2023/05/04 13:15:49;;;;;;;4.78;3.20;;;;;;;;;;10039528;28;20061;-72
2023/05/04 13:20:43;;;;;;;3.83;3.45;;;;;;;;;;10046092;28;20076;-72
2023/05/04 13:25:36;;;;;;;4.20;3.53;;;;;;;;;;10042093;28;20088;-72
2023/05/04 13:30:30;;;;;;;5.72;3.28;;;;;;;;;;10030469;28;20053;-71
2023/05/04 13:35:24;;;;;;;4.18;3.50;;;;;;;;;;10035768;28;20064;-71
2023/05/04 13:40:19;;;;;;;4.13;3.83;;;;;;;;;;10033072;28;20053;-71
2023/05/04 13:45:13;;;;;;;5.97;4.47;;;;;;;;;;10047144;28;20041;-71
2023/05/04 13:50:08;;;;;;;6.15;4.63;;;;;;;;;;10060404;28;20504;-72
2023/05/04 13:55:02;;;;;;;4.88;4.20;;;;;;;;;;10059709;28;20132;-71
2023/05/04 13:59:58;;;;;;;5.10;4.13;;;;;;;;;;10055448;28;20045;-71
2023/05/04 14:05:02;;;;;;;5.68;3.60;;;;;;;;;;10063529;28;20508;-71
2023/05/04 14:09:55;;;;;;;5.68;3.88;;;;;;;;;;10057020;28;20085;-71
2023/05/04 14:14:49;;;;;;;4.57;4.03;;;;;;;;;;10061459;28;20432;-71
2023/05/04 14:19:44;;;;;;;11.85;3.95;;;;;;;;;;10038253;28;20049;-71
2023/05/04 14:24:37;;;;;;;5.47;3.60;;;;;;;;;;10046462;28;20068;-70
2023/05/04 14:29:32;;;;;;;5.93;3.72;;;;;;;;;;10060705;28;20077;-70
2023/05/04 14:34:25;;;;;;;5.43;3.92;;;;;;;;;;10061468;28;20046;-72
2023/05/04 14:39:23;;;;;;;6.72;2.90;;;;;;;;;;10065773;28;20558;-73
2023/05/04 14:44:16;;;;;;;3.70;3.40;;;;;;;;;;10057613;28;20054;-73
2023/05/04 14:49:10;;;;;;;3.70;3.40;;;;;;;;;;10059560;28;20132;-70
2023/05/04 14:54:16;;;;;;;3.38;3.03;;;;;;;;;;10064010;28;20053;-70
2023/05/04 14:59:10;;;;;;;3.63;3.33;;;;;;;;;;10047675;28;20539;-71
2023/05/04 15:04:06;;;;;;;4.18;3.38;;;;;;;;;;10053794;28;20119;-71
2023/05/04 15:09:02;;;;;;;3.30;3.03;;;;;;;;;;10057068;28;20107;-71
2023/05/04 15:13:57;;;;;;;3.05;2.75;;;;;;;;;;10045885;28;20053;-71
2023/05/04 15:18:51;;;;;;;3.88;3.10;;;;;;;;;;10053450;28;20054;-69
2023/05/04 15:23:44;;;;;;;3.75;3.17;;;;;;;;;;10058279;28;20420;-70
2023/05/04 15:28:38;;;;;;;4.63;2.80;;;;;;;;;;10054122;28;20512;-70
2023/05/04 15:33:32;;;;;;;6.00;3.60;;;;;;;;;;10063780;28;20152;-69
2023/05/04 15:38:27;;;;;;;6.00;3.88;;;;;;;;;;10058621;28;20447;-69
2023/05/04 15:43:20;;;;;;;3.50;3.20;;;;;;;;;;10060165;28;20099;-72
2023/05/04 15:48:13;;;;;;;4.03;3.40;;;;;;;;;;10040544;28;20053;-69
2023/05/04 15:53:06;;;;;;;3.65;3.10;;;;;;;;;;10059319;28;20045;-70
2023/05/04 15:58:00;;;;;;;4.10;3.17;;;;;;;;;;10054287;28;20425;-71
2023/05/04 16:02:54;;;;;;;3.92;3.47;;;;;;;;;;10043247;28;20412;-71
2023/05/04 16:07:47;;;;;;;6.28;3.67;;;;;;;;;;10061589;28;20141;-68
2023/05/04 16:12:40;;;;;;;6.65;3.10;;;;;;;;;;10062318;28;20077;-68
2023/05/04 16:17:34;;;;;;;3.55;3.25;;;;;;;;;;10041163;28;20061;-68
2023/05/04 16:22:28;;;;;;;3.65;3.30;;;;;;;;;;10032640;28;20037;-68
2023/05/04 16:27:26;;;;;;;4.25;3.25;;;;;;;;;;10046613;28;20081;-68
2023/05/04 16:32:19;;;;;;;3.38;3.08;;;;;;;;;;10068280;28;20072;-71
2023/05/04 16:37:12;;;;;;;4.35;3.03;;;;;;;;;;10064912;28;20049;-68
2023/05/04 16:42:05;;;;;;;3.45;3.15;;;;;;;;;;10053284;28;20050;-70
2023/05/04 16:46:58;;;;;;;8.05;5.80;;;;;;;;;;10049270;28;20062;-70
2023/05/04 16:51:55;;;;;;;4.72;4.32;;;;;;;;;;10032978;28;20168;-70
2023/05/04 16:56:49;;;;;;;7.30;4.43;;;;;;;;;;10028129;28;20068;-71
2023/05/04 17:01:42;;;;;;;4.68;4.28;;;;;;;;;;10057500;28;20053;-70
2023/05/04 17:06:36;;;;;;;6.07;4.50;;;;;;;;;;10050953;28;20053;-70
2023/05/04 17:11:31;;;;;;;5.82;5.15;;;;;;;;;;10057815;28;20505;-69
2023/05/04 17:16:25;;;;;;;4.82;4.20;;;;;;;;;;10033262;28;20132;-69
2023/05/04 17:21:19;;;;;;;5.47;4.25;;;;;;;;;;10057189;28;20100;-70
2023/05/04 17:26:12;;;;;;;5.38;4.88;;;;;;;;;;10050451;28;20148;-69
2023/05/04 17:31:10;;;;;;;6.10;4.25;;;;;;;;;;10062764;28;20526;-69
2023/05/04 17:36:06;;;;;;;5.10;4.65;;;;;;;;;;10061721;28;20053;-68
2023/05/04 17:41:00;;;;;;;7.85;4.18;;;;;;;;;;10047531;28;20126;-70
2023/05/04 17:45:53;;;;;;;4.93;4.50;;;;;;;;;;10044540;28;20062;-69
2023/05/04 17:50:48;;;;;;;8.48;4.35;;;;;;;;;;10048868;28;20080;-71
2023/05/04 17:55:42;;;;;;;4.40;3.97;;;;;;;;;;10059143;28;20540;-71
2023/05/04 18:00:35;;;;;;;7.10;4.70;;;;;;;;;;10037664;28;20062;-68
2023/05/04 18:05:29;;;;;;;7.07;4.18;;;;;;;;;;10056093;28;20049;-67
2023/05/04 18:10:21;;;;;;;4.80;4.40;;;;;;;;;;10060356;28;20058;-66
2023/05/04 18:15:16;;;;;;;4.55;4.15;;;;;;;;;;10050173;28;20136;-69
2023/05/04 18:20:11;;;;;;;4.57;4.18;;;;;;;;;;10048483;28;20128;-68
2023/05/04 18:25:07;;;;;;;6.45;4.20;;;;;;;;;;10043844;28;20083;-67
2023/05/04 18:30:02;;;;;;;4.40;4.00;;;;;;;;;;10068717;28;20152;-67
2023/05/04 18:34:57;;;;;;;4.00;3.70;;;;;;;;;;10047638;28;20077;-66
2023/05/04 18:39:52;;;;;;;5.60;4.40;;;;;;;;;;10055783;28;20080;-66
2023/05/04 18:44:46;;;;;;;7.47;4.35;;;;;;;;;;10048031;28;20107;-70
2023/05/04 18:49:40;;;;;;;4.70;4.30;;;;;;;;;;10056037;28;20592;-67
2023/05/04 18:54:34;;;;;;;6.80;5.00;;;;;;;;;;10053805;28;20057;-68
2023/05/04 18:59:27;;;;;;;5.05;4.55;;;;;;;;;;10065307;28;20535;-71
2023/05/04 19:04:21;;;;;;;5.35;4.90;;;;;;;;;;10058095;28;20045;-77
2023/05/04 19:09:13;;;;;;;6.07;4.63;;;;;;;;;;10059068;28;20045;-77
2023/05/04 19:14:07;;;;;;;7.43;4.38;;;;;;;;;;10058347;28;20045;-75
2023/05/04 19:19:00;;;;;;;4.90;4.50;;;;;;;;;;10059981;28;20111;-74
2023/05/04 19:23:54;;;;;;;5.90;5.40;;;;;;;;;;10056136;28;20108;-76
2023/05/04 19:28:48;;;;;;;5.15;4.65;;;;;;;;;;10060085;28;20061;-74
2023/05/04 19:33:41;;;;;;;7.07;4.95;;;;;;;;;;10066140;28;20053;-74
2023/05/04 19:38:40;;;;;;;6.25;5.60;;;;;;;;;;10061292;28;20132;-75
2023/05/04 19:43:34;;;;;;;7.80;4.93;;;;;;;;;;10050452;28;20073;-76
2023/05/04 19:48:28;;;;;;;5.97;5.38;;;;;;;;;;10034343;28;20497;-75
2023/05/04 19:53:22;;;;;;;7.53;5.53;;;;;;;;;;10054685;28;20140;-73
2023/05/04 19:58:15;;;;;;;7.18;5.70;;;;;;;;;;10049216;28;20132;-72
2023/05/04 20:03:09;;;;;;;6.60;6.05;;;;;;;;;;10051739;28;20054;-76
2023/05/04 20:08:02;;;;;;;7.95;6.70;;;;;;;;;;10047272;28;20081;-77
2023/05/04 20:12:57;;;;;;;6.70;6.10;;;;;;;;;;10056052;28;20500;-77
2023/05/04 20:17:50;;;;;;;7.50;6.80;;;;;;;;;;10043923;28;20420;-76
2023/05/04 20:22:47;;;;;;;7.22;6.53;;;;;;;;;;10046265;28;20108;-76
2023/05/04 20:27:41;;;;;;;7.18;6.43;;;;;;;;;;10054972;28;20057;-76
2023/05/04 20:32:35;;;;;;;9.43;6.85;;;;;;;;;;10056870;28;20061;-77
2023/05/04 20:37:29;;;;;;;8.15;7.35;;;;;;;;;;10046958;28;20057;-76
2023/05/04 20:42:23;;;;;;;14.02;8.25;;;;;;;;;;10050627;28;20096;-77
2023/05/04 20:47:18;;;;;;;9.00;7.82;;;;;;;;;;10043284;28;20112;-78
2023/05/04 20:52:11;;;;;;;16.63;14.88;;;;;;;;;;10049318;28;20100;-76
2023/05/04 20:57:05;;;;;;;85.80;76.78;;;;;;;;;;10057402;28;20046;-78
2023/05/04 21:02:00;;;;;;;36.42;31.52;;;;;;;;;;10040492;28;20695;-79
2023/05/04 21:06:57;;;;;;;22.08;19.42;;;;;;;;;;10044823;28;20108;-84
2023/05/04 21:11:58;;;;;;;18.45;14.77;;;;;;;;;;10047300;28;20045;-83
2023/05/04 21:16:56;;;;;;;17.38;15.00;;;;;;;;;;10048663;28;20096;-78
2023/05/04 21:21:58;;;;;;;16.48;14.95;;;;;;;;;;10044555;28;20057;-80
2023/05/04 21:27:00;;;;;;;11.68;10.50;;;;;;;;;;10063266;28;20116;-79
2023/05/04 21:31:57;;;;;;;9.65;8.75;;;;;;;;;;10044203;28;20516;-79
2023/05/04 21:36:57;;;;;;;19.00;9.85;;;;;;;;;;10052831;28;20628;-84
2023/05/04 21:41:56;;;;;;;11.25;8.70;;;;;;;;;;10053558;28;20046;-78
2023/05/04 21:46:53;;;;;;;16.02;12.18;;;;;;;;;;10043089;28;20137;-77
2023/05/04 21:51:51;;;;;;;14.48;12.27;;;;;;;;;;10047130;28;20144;-76
2023/05/04 21:56:49;;;;;;;11.47;10.27;;;;;;;;;;10044574;28;20057;-75
2023/05/04 22:01:51;;;;;;;11.13;9.90;;;;;;;;;;10054654;28;20416;-76
2023/05/04 22:06:48;;;;;;;12.00;10.77;;;;;;;;;;10044532;28;20119;-76
2023/05/04 22:11:51;;;;;;;15.52;10.00;;;;;;;;;;10036953;28;20056;-76
2023/05/04 22:16:51;;;;;;;13.20;9.43;;;;;;;;;;10039109;28;20054;-76
2023/05/04 22:21:49;;;;;;;;;;;;;;;;;;10049874;28;20148;-75
2023/05/04 22:26:48;;;;;;;9.77;8.88;;;;;;;;;;10046623;28;20371;-75
2023/05/04 22:31:43;;;;;;;11.90;10.63;;;;;;;;;;10044612;28;20076;-75
2023/05/04 22:36:37;;;;;;;10.13;9.20;;;;;;;;;;10044573;28;20050;-78
2023/05/04 22:41:31;;;;;;;11.85;9.27;;;;;;;;;;10051022;28;20096;-78
2023/05/04 22:46:25;;;;;;;11.15;10.02;;;;;;;;;;10045078;28;20057;-78
2023/05/04 22:51:19;;;;;;;10.82;9.48;;;;;;;;;;10053712;28;20100;-78
2023/05/04 22:56:13;;;;;;;11.18;10.10;;;;;;;;;;10040495;28;20137;-77
2023/05/04 23:01:10;;;;;;;10.13;8.98;;;;;;;;;;10047851;28;20404;-78
2023/05/04 23:06:05;;;;;;;10.60;9.50;;;;;;;;;;10055862;28;20050;-77
2023/05/04 23:10:59;;;;;;;13.02;8.27;;;;;;;;;;10041785;28;20068;-78
2023/05/04 23:15:53;;;;;;;13.85;9.50;;;;;;;;;;10044111;28;20097;-76
2023/05/04 23:20:46;;;;;;;13.13;9.48;;;;;;;;;;10031055;28;20458;-74
2023/05/04 23:25:42;;;;;;;13.52;9.85;;;;;;;;;;10042271;28;20504;-74
2023/05/04 23:30:38;;;;;;;16.80;9.80;;;;;;;;;;10055458;28;20157;-74
2023/05/04 23:35:31;;;;;;;12.60;10.38;;;;;;;;;;10069435;28;20049;-75
2023/05/04 23:40:25;;;;;;;15.38;10.10;;;;;;;;;;10067788;28;20053;-75
2023/05/04 23:45:19;;;;;;;12.70;10.82;;;;;;;;;;10031481;28;20096;-73
2023/05/04 23:50:12;;;;;;;10.60;9.48;;;;;;;;;;10042540;28;20056;-75
2023/05/04 23:55:07;;;;;;;10.73;9.73;;;;;;;;;;10034469;28;20049;-75
